createdAt,value
2019-04-07T00:01:45.831Z,7.20
2019-04-07T00:04:14.587Z,8.73
2019-04-07T00:06:42.970Z,8.97
2019-04-07T00:09:11.945Z,8.13
2019-04-07T00:11:40.423Z,9.30
2019-04-07T00:14:08.814Z,8.47
2019-04-07T00:16:37.357Z,8.00
2019-04-07T00:19:06.572Z,7.37
2019-04-07T00:21:35.271Z,8.80
2019-04-07T00:24:03.774Z,11.73
2019-04-07T00:26:32.162Z,7.27
2019-04-07T00:29:01.578Z,7.83
2019-04-07T00:31:30.173Z,8.30
2019-04-07T00:33:59.299Z,8.10
2019-04-07T00:36:27.897Z,8.37
2019-04-07T00:38:56.254Z,8.47
2019-04-07T00:41:24.846Z,8.07
2019-04-07T00:43:53.201Z,8.57
2019-04-07T00:46:21.852Z,7.87
2019-04-07T00:48:50.254Z,9.17
2019-04-07T00:51:18.789Z,6.93
2019-04-07T00:53:47.105Z,9.10
2019-04-07T00:56:15.819Z,6.83
2019-04-07T00:58:44.539Z,9.23
2019-04-07T01:01:15.175Z,8.00
2019-04-07T01:03:43.606Z,7.73
2019-04-07T01:06:12.001Z,7.63
2019-04-07T01:08:40.381Z,9.20
2019-04-07T01:11:08.881Z,7.00
2019-04-07T01:13:37.372Z,8.30
2019-04-07T01:16:05.696Z,10.23
2019-04-07T01:18:35.464Z,7.80
2019-04-07T01:21:03.883Z,7.40
2019-04-07T01:23:32.515Z,6.67
2019-04-07T01:26:00.983Z,7.27
2019-04-07T01:28:29.518Z,6.17
2019-04-07T01:30:59.070Z,10.97
2019-04-07T01:33:27.747Z,5.80
2019-04-07T01:35:56.410Z,6.53
2019-04-07T01:38:24.866Z,6.73
2019-04-07T01:40:55.363Z,7.63
2019-04-07T01:43:28.116Z,5.87
2019-04-07T01:46:07.018Z,7.23
2019-04-07T01:48:52.098Z,6.97
2019-04-07T01:51:31.303Z,6.87
2019-04-07T01:54:03.853Z,6.70
2019-04-07T01:56:33.870Z,7.53
2019-04-07T01:59:11.249Z,7.40
2019-04-07T02:01:41.729Z,8.60
2019-04-07T02:07:14.516Z,7.20
2019-04-07T02:09:59.810Z,5.63
2019-04-07T02:12:46.591Z,7.63
2019-04-07T02:15:19.194Z,6.70
2019-04-07T02:17:58.264Z,5.90
2019-04-07T02:20:40.018Z,6.70
2019-04-07T02:23:12.794Z,6.40
2019-04-07T02:25:44.097Z,7.17
2019-04-07T02:28:23.038Z,6.07
2019-04-07T02:31:08.108Z,5.80
2019-04-07T02:33:40.818Z,7.30
2019-04-07T02:36:18.193Z,6.67
2019-04-07T02:38:42.683Z,6.67
2019-04-07T02:41:12.704Z,6.07
2019-04-07T02:43:55.618Z,6.63
2019-04-07T02:46:38.220Z,6.33
2019-04-07T02:49:14.169Z,7.03
2019-04-07T02:51:56.359Z,5.90
2019-04-07T02:54:36.054Z,6.90
2019-04-07T02:57:24.357Z,5.60
2019-04-07T02:59:54.433Z,7.53
2019-04-07T03:02:41.166Z,6.40
2019-04-07T03:05:20.963Z,7.00
2019-04-07T03:07:53.729Z,5.00
2019-04-07T03:10:24.976Z,5.63
2019-04-07T03:13:07.395Z,6.57
2019-04-07T03:15:44.157Z,5.50
2019-04-07T03:18:27.098Z,5.93
2019-04-07T03:21:13.101Z,7.27
2019-04-07T03:23:46.152Z,5.03
2019-04-07T03:26:32.470Z,4.73
2019-04-07T03:29:05.740Z,7.30
2019-04-07T03:31:38.991Z,6.60
2019-04-07T03:34:12.389Z,7.07
2019-04-07T03:37:32.229Z,5.60
2019-04-07T03:39:34.561Z,5.97
2019-04-07T03:44:51.291Z,5.90
2019-04-07T03:47:22.262Z,6.63
2019-04-07T03:49:52.942Z,6.43
2019-04-07T03:52:26.692Z,7.40
2019-04-07T03:55:13.399Z,6.93
2019-04-07T03:57:50.667Z,5.90
2019-04-07T04:00:42.254Z,6.87
2019-04-07T04:03:12.880Z,8.30
2019-04-07T04:05:43.387Z,6.60
2019-04-07T04:08:16.047Z,7.73
2019-04-07T04:10:48.841Z,7.63
2019-04-07T04:13:27.842Z,8.63
2019-04-07T04:16:00.964Z,8.23
2019-04-07T04:18:29.328Z,8.77
2019-04-07T04:20:57.705Z,8.40
2019-04-07T04:23:26.149Z,8.87
2019-04-07T04:25:54.547Z,6.97
2019-04-07T04:28:23.692Z,7.93
2019-04-07T04:30:52.343Z,7.47
2019-04-07T04:33:20.753Z,10.20
2019-04-07T04:35:49.155Z,8.37
2019-04-07T04:38:17.809Z,10.13
2019-04-07T04:40:46.281Z,7.40
2019-04-07T04:43:15.558Z,8.93
2019-04-07T04:45:44.880Z,8.50
2019-04-07T04:48:13.393Z,7.70
2019-04-07T04:50:42.131Z,8.00
2019-04-07T04:53:10.808Z,8.97
2019-04-07T04:55:39.299Z,8.57
2019-04-07T04:58:08.770Z,8.60
2019-04-07T05:00:38.456Z,9.67
2019-04-07T05:03:07.197Z,10.13
2019-04-07T05:05:35.789Z,9.93
2019-04-07T05:08:05.513Z,8.37
2019-04-07T05:10:34.830Z,11.37
2019-04-07T05:13:03.268Z,9.53
2019-04-07T05:15:32.559Z,9.73
2019-04-07T05:18:01.648Z,8.03
2019-04-07T05:20:30.181Z,8.47
2019-04-07T05:22:58.670Z,9.47
2019-04-07T05:25:27.412Z,8.97
2019-04-07T05:27:55.894Z,8.20
2019-04-07T05:30:24.248Z,7.63
2019-04-07T05:32:52.634Z,8.63
2019-04-07T05:35:21.027Z,8.50
2019-04-07T05:38:00.170Z,9.60
2019-04-07T05:40:20.116Z,12.20
2019-04-07T05:42:48.503Z,10.33
2019-04-07T05:45:17.290Z,9.33
2019-04-07T05:47:48.720Z,9.37
2019-04-07T05:50:16.693Z,8.80
2019-04-07T05:52:45.087Z,8.40
2019-04-07T05:55:14.243Z,8.27
2019-04-07T05:57:43.157Z,7.50
2019-04-07T06:00:15.598Z,8.73
2019-04-07T06:02:44.100Z,8.93
2019-04-07T06:05:12.478Z,9.30
2019-04-07T06:07:41.567Z,12.10
2019-04-07T06:10:11.209Z,7.10
2019-04-07T06:12:43.263Z,8.00
2019-04-07T06:15:09.857Z,7.97
2019-04-07T06:17:38.921Z,8.87
2019-04-07T06:20:12.118Z,7.87
2019-04-07T06:22:38.110Z,9.37
2019-04-07T06:25:07.307Z,9.50
2019-04-07T06:27:35.861Z,8.40
2019-04-07T06:30:08.343Z,7.60
2019-04-07T06:32:38.389Z,8.07
2019-04-07T06:35:07.666Z,8.50
2019-04-07T06:37:36.315Z,7.90
2019-04-07T06:40:06.446Z,9.77
2019-04-07T06:42:35.452Z,9.93
2019-04-07T06:45:06.794Z,10.07
2019-04-07T06:47:46.224Z,10.73
2019-04-07T06:50:16.877Z,10.97
2019-04-07T06:52:49.667Z,7.60
2019-04-07T06:55:20.107Z,9.47
2019-04-07T06:58:08.303Z,7.93
2019-04-07T07:00:41.199Z,9.90
2019-04-07T07:03:11.615Z,8.87
2019-04-07T07:05:45.352Z,9.33
2019-04-07T07:08:21.060Z,7.93
2019-04-07T07:10:53.262Z,9.33
2019-04-07T07:13:36.815Z,8.60
2019-04-07T07:16:10.138Z,8.70
2019-04-07T07:18:41.345Z,7.97
2019-04-07T07:21:26.073Z,10.13
2019-04-07T07:23:54.449Z,8.57
2019-04-07T07:26:23.412Z,7.60
2019-04-07T07:28:52.117Z,7.87
2019-04-07T07:31:25.260Z,8.80
2019-04-07T07:33:50.655Z,8.17
2019-04-07T07:36:21.518Z,8.98
2019-04-07T07:38:57.586Z,7.47
2019-04-07T07:41:22.202Z,9.67
2019-04-07T07:43:49.337Z,8.30
2019-04-07T07:46:20.535Z,7.60
2019-04-07T07:48:47.834Z,8.03
2019-04-07T07:51:16.458Z,6.70
2019-04-07T07:53:44.986Z,7.80
2019-04-07T07:56:14.267Z,8.37
2019-04-07T07:58:42.684Z,9.47
2019-04-07T08:01:13.541Z,6.90
2019-04-07T08:03:41.450Z,6.53
2019-04-07T08:06:09.805Z,7.07
2019-04-07T08:08:38.191Z,5.97
2019-04-07T08:11:06.788Z,7.50
2019-04-07T08:13:42.125Z,5.67
2019-04-07T08:16:06.331Z,4.63
2019-04-07T08:18:37.126Z,4.60
2019-04-07T08:21:05.556Z,4.43
2019-04-07T08:23:34.139Z,5.07
2019-04-07T08:26:02.801Z,4.23
2019-04-07T08:28:33.680Z,3.53
2019-04-07T08:31:01.894Z,4.30
2019-04-07T08:33:30.438Z,3.63
2019-04-07T08:35:58.940Z,4.17
2019-04-07T08:38:28.335Z,3.93
2019-04-07T08:40:57.537Z,4.17
2019-04-07T08:43:26.489Z,3.63
2019-04-07T08:45:55.366Z,3.67
2019-04-07T08:48:23.866Z,2.80
2019-04-07T08:50:52.848Z,3.73
2019-04-07T08:53:21.693Z,3.67
2019-04-07T08:55:54.387Z,3.10
2019-04-07T08:58:25.843Z,3.30
2019-04-07T09:00:53.809Z,6.27
2019-04-07T09:03:22.065Z,3.93
2019-04-07T09:05:51.355Z,4.63
2019-04-07T09:08:20.421Z,6.50
2019-04-07T09:10:53.838Z,5.10
2019-04-07T09:13:22.469Z,4.53
2019-04-07T09:15:55.631Z,4.57
2019-04-07T09:18:51.633Z,5.37
2019-04-07T09:21:38.673Z,4.57
2019-04-07T09:24:05.030Z,5.67
2019-04-07T09:26:35.511Z,5.87
2019-04-07T09:29:11.649Z,7.77
2019-04-07T09:31:41.626Z,6.13
2019-04-07T09:34:18.217Z,5.10
2019-04-07T09:36:52.108Z,5.20
2019-04-07T09:39:24.777Z,5.77
2019-04-07T09:42:00.955Z,6.83
2019-04-07T09:44:36.011Z,5.27
2019-04-07T09:47:07.842Z,6.13
2019-04-07T09:49:46.172Z,6.07
2019-04-07T09:52:22.131Z,5.13
2019-04-07T09:54:57.557Z,5.77
2019-04-07T09:57:27.595Z,5.17
2019-04-07T09:59:57.614Z,5.43
2019-04-07T10:02:35.489Z,6.87
2019-04-07T10:05:24.103Z,5.27
2019-04-07T10:08:07.114Z,4.37
2019-04-07T10:10:43.661Z,4.67
2019-04-07T10:13:25.678Z,5.10
2019-04-07T10:16:12.052Z,3.93
2019-04-07T10:18:58.366Z,5.70
2019-04-07T10:21:44.892Z,4.47
2019-04-07T10:24:31.494Z,5.30
2019-04-07T10:27:01.835Z,4.77
2019-04-07T10:29:31.911Z,5.30
2019-04-07T10:32:16.852Z,5.00
2019-04-07T10:35:02.470Z,5.40
2019-04-07T10:37:36.111Z,4.53
2019-04-07T10:40:20.344Z,5.70
2019-04-07T10:42:51.416Z,4.33
2019-04-07T10:45:24.988Z,7.13
2019-04-07T10:48:07.002Z,4.50
2019-04-07T10:50:45.935Z,5.30
2019-04-07T10:53:33.273Z,5.87
2019-04-07T10:56:09.925Z,5.27
2019-04-07T10:58:56.732Z,5.00
2019-04-07T11:01:33.376Z,5.70
2019-04-07T11:04:12.771Z,6.30
2019-04-07T11:06:43.862Z,7.10
2019-04-07T11:09:14.054Z,5.47
2019-04-07T11:11:46.664Z,5.07
2019-04-07T11:14:16.162Z,9.60
2019-04-07T11:16:49.852Z,6.77
2019-04-07T11:19:38.003Z,7.27
2019-04-07T11:22:14.418Z,5.97
2019-04-07T11:24:53.815Z,5.20
2019-04-07T11:27:27.691Z,5.40
2019-04-07T11:30:00.695Z,5.83
2019-04-07T11:32:37.072Z,5.17
2019-04-07T11:35:14.873Z,6.07
2019-04-07T11:37:45.124Z,6.15
2019-04-07T11:40:22.657Z,17.53
2019-04-07T11:42:53.438Z,7.40
2019-04-07T11:45:23.714Z,6.77
2019-04-07T11:47:54.496Z,5.17
2019-04-07T11:50:34.342Z,6.67
2019-04-07T11:53:07.579Z,5.40
2019-04-07T11:55:44.204Z,4.90
2019-04-07T11:58:19.954Z,5.07
2019-04-07T12:00:47.340Z,5.60
2019-04-07T12:03:24.686Z,5.77
2019-04-07T12:05:52.208Z,5.90
2019-04-07T12:08:35.800Z,6.33
2019-04-07T12:11:19.966Z,5.73
2019-04-07T12:13:49.995Z,5.80
2019-04-07T12:16:28.688Z,5.83
2019-04-07T12:19:04.407Z,5.33
2019-04-07T12:21:38.250Z,6.77
2019-04-07T12:24:09.772Z,5.83
2019-04-07T12:26:52.789Z,6.07
2019-04-07T12:29:37.609Z,6.87
2019-04-07T12:32:14.858Z,6.33
2019-04-07T12:34:47.706Z,5.70
2019-04-07T12:37:17.492Z,6.40
2019-04-07T12:39:51.286Z,13.17
2019-04-07T12:42:27.810Z,6.70
2019-04-07T12:44:58.259Z,6.47
2019-04-07T12:47:45.004Z,6.83
2019-04-07T12:50:17.587Z,6.17
2019-04-07T12:52:50.296Z,6.10
2019-04-07T12:55:22.965Z,8.10
2019-04-07T12:58:02.048Z,6.37
2019-04-07T13:00:56.125Z,7.50
2019-04-07T13:03:19.938Z,6.53
2019-04-07T13:06:09.260Z,6.63
2019-04-07T13:08:49.085Z,6.27
2019-04-07T13:11:38.680Z,5.87
2019-04-07T13:14:23.367Z,6.37
2019-04-07T13:17:08.971Z,5.47
2019-04-07T13:19:51.429Z,6.83
2019-04-07T13:22:34.399Z,7.40
2019-04-07T13:25:09.104Z,6.80
2019-04-07T13:27:41.662Z,6.27
2019-04-07T13:30:18.207Z,5.87
2019-04-07T13:33:04.678Z,5.60
2019-04-07T13:35:37.475Z,7.10
2019-04-07T13:38:26.275Z,6.23
2019-04-07T13:41:03.004Z,5.50
2019-04-07T13:43:39.167Z,6.63
2019-04-07T13:46:24.483Z,6.97
2019-04-07T13:49:00.446Z,5.17
2019-04-07T13:51:30.439Z,4.97
2019-04-07T13:54:01.990Z,5.90
2019-04-07T13:56:49.888Z,5.73
2019-04-07T13:59:19.334Z,6.73
2019-04-07T14:01:52.430Z,6.40
2019-04-07T14:04:39.231Z,5.53
2019-04-07T14:07:17.873Z,5.47
2019-04-07T14:09:46.930Z,6.13
2019-04-07T14:12:25.972Z,5.10
2019-04-07T14:14:56.095Z,5.93
2019-04-07T14:17:32.282Z,5.00
2019-04-07T14:20:19.283Z,5.87
2019-04-07T14:22:55.587Z,6.73
2019-04-07T14:25:44.554Z,5.00
2019-04-07T14:28:23.381Z,5.07
2019-04-07T14:30:56.347Z,4.77
2019-04-07T14:33:39.226Z,5.57
2019-04-07T14:36:09.322Z,5.30
2019-04-07T14:38:48.373Z,5.50
2019-04-07T14:41:24.710Z,6.27
2019-04-07T14:43:57.621Z,5.50
2019-04-07T14:46:30.339Z,5.93
2019-04-07T14:49:06.662Z,6.17
2019-04-07T14:51:54.899Z,5.67
2019-04-07T14:54:28.210Z,6.10
2019-04-07T14:57:15.498Z,6.03
2019-04-07T15:00:01.890Z,5.40
2019-04-07T15:02:30.396Z,8.03
2019-04-07T15:05:03.115Z,6.27
2019-04-07T15:07:40.834Z,6.33
2019-04-07T15:10:11.849Z,5.83
2019-04-07T15:12:57.940Z,5.80
2019-04-07T15:15:26.780Z,5.73
2019-04-07T15:17:55.300Z,6.47
2019-04-07T15:20:23.918Z,9.23
2019-04-07T15:22:52.848Z,6.87
2019-04-07T15:25:21.609Z,6.53
2019-04-07T15:27:49.979Z,8.33
2019-04-07T15:30:18.465Z,6.83
2019-04-07T15:32:46.851Z,5.80
2019-04-07T15:35:16.308Z,5.80
2019-04-07T15:37:44.907Z,8.17
2019-04-07T15:40:14.001Z,7.00
2019-04-07T15:42:45.917Z,7.13
2019-04-07T15:45:13.401Z,5.77
2019-04-07T15:47:42.489Z,6.67
2019-04-07T15:50:11.735Z,8.13
2019-04-07T15:52:43.707Z,6.73
2019-04-07T15:55:11.611Z,6.93
2019-04-07T15:57:40.749Z,6.50
2019-04-07T16:00:10.044Z,8.40
2019-04-07T16:02:42.162Z,7.97
2019-04-07T16:05:09.449Z,7.70
2019-04-07T16:07:37.832Z,7.10
2019-04-07T16:10:08.048Z,7.43
2019-04-07T16:12:45.174Z,8.33
2019-04-07T16:15:08.003Z,6.83
2019-04-07T16:17:37.167Z,6.97
2019-04-07T16:20:19.855Z,7.57
2019-04-07T16:22:44.255Z,9.10
2019-04-07T16:25:11.223Z,6.53
2019-04-07T16:27:39.798Z,7.80
2019-04-07T16:30:13.773Z,7.90
2019-04-07T16:32:41.967Z,10.50
2019-04-07T16:35:15.583Z,7.80
2019-04-07T16:37:40.900Z,10.63
2019-04-07T16:40:11.451Z,8.73
2019-04-07T16:42:39.836Z,10.13
2019-04-07T16:45:12.515Z,9.23
2019-04-07T16:47:38.676Z,10.20
2019-04-07T16:50:07.668Z,9.40
2019-04-07T16:52:36.471Z,10.10
2019-04-07T16:55:08.981Z,10.17
2019-04-07T16:57:37.586Z,11.07
2019-04-07T17:00:15.287Z,11.73
2019-04-07T17:02:43.922Z,12.60
2019-04-07T17:05:12.323Z,11.53
2019-04-07T17:07:45.245Z,12.65
2019-04-07T17:10:13.305Z,11.57
2019-04-07T17:12:43.923Z,11.20
2019-04-07T17:15:12.419Z,11.67
2019-04-07T17:17:40.809Z,12.07
2019-04-07T17:20:10.018Z,15.10
2019-04-07T17:22:38.439Z,17.20
2019-04-07T17:25:09.927Z,16.07
2019-04-07T17:27:40.944Z,14.80
2019-04-07T17:30:11.152Z,14.10
2019-04-07T17:32:40.333Z,13.90
2019-04-07T17:35:12.587Z,16.27
2019-04-07T17:37:40.585Z,15.50
2019-04-07T17:40:17.296Z,17.57
2019-04-07T17:42:48.218Z,15.83
2019-04-07T17:45:33.833Z,15.80
2019-04-07T17:48:16.802Z,14.97
2019-04-07T17:50:50.077Z,16.10
2019-04-07T17:53:23.221Z,16.87
2019-04-07T17:56:08.775Z,15.67
2019-04-07T17:58:39.972Z,15.93
2019-04-07T18:01:20.629Z,15.57
2019-04-07T18:03:47.929Z,19.67
2019-04-07T18:09:07.687Z,16.50
2019-04-07T18:11:33.934Z,16.43
2019-04-07T18:14:06.725Z,17.47
2019-04-07T18:16:53.151Z,16.60
2019-04-07T18:19:39.492Z,16.42
2019-04-07T18:22:21.437Z,18.13
2019-04-07T18:25:05.192Z,18.87
2019-04-07T18:27:36.217Z,17.57
2019-04-07T18:30:14.814Z,19.00
2019-04-07T18:32:59.782Z,16.20
2019-04-07T18:35:32.881Z,18.10
2019-04-07T18:38:17.337Z,18.10
2019-04-07T18:40:48.290Z,17.60
2019-04-07T18:43:24.591Z,19.73
2019-04-07T18:45:55.105Z,18.17
2019-04-07T18:48:40.251Z,17.00
2019-04-07T18:51:27.281Z,19.83
2019-04-07T18:54:05.375Z,18.90
2019-04-07T18:56:41.748Z,19.90
2019-04-07T18:59:20.446Z,19.27
2019-04-07T19:02:13.831Z,18.27
2019-04-07T19:04:50.060Z,21.03
2019-04-07T19:07:20.124Z,21.30
2019-04-07T19:10:10.672Z,21.27
2019-04-07T19:12:39.948Z,21.63
2019-04-07T19:15:21.419Z,20.27
2019-04-07T19:18:06.934Z,22.47
2019-04-07T19:20:51.981Z,20.03
2019-04-07T19:23:37.564Z,22.37
2019-04-07T19:26:18.285Z,19.20
2019-04-07T19:28:48.137Z,18.13
2019-04-07T19:31:21.619Z,20.97
2019-04-07T19:34:10.046Z,19.70
2019-04-07T19:36:42.801Z,21.60
2019-04-07T19:39:12.376Z,20.88
2019-04-07T19:41:54.061Z,20.47
2019-04-07T19:44:35.562Z,22.67
2019-04-07T19:47:01.403Z,19.23
2019-04-07T19:49:47.678Z,20.93
2019-04-07T19:52:39.539Z,21.10
2019-04-07T19:55:10.013Z,22.77
2019-04-07T19:57:45.533Z,22.53
2019-04-07T20:00:28.924Z,20.17
2019-04-07T20:03:11.387Z,21.17
2019-04-07T20:05:42.942Z,19.67
2019-04-07T20:08:16.500Z,22.20
2019-04-07T20:10:54.908Z,22.53
2019-04-07T20:13:26.138Z,22.57
2019-04-07T20:15:59.240Z,24.33
2019-04-07T20:18:38.315Z,21.93
2019-04-07T20:21:16.361Z,22.57
2019-04-07T20:23:45.972Z,21.27
2019-04-07T20:26:22.075Z,24.43
2019-04-07T20:29:02.194Z,23.07
2019-04-07T20:31:42.907Z,21.93
2019-04-07T20:34:16.354Z,21.65
2019-04-07T20:37:02.501Z,24.97
2019-04-07T20:39:35.124Z,22.20
2019-04-07T20:42:11.372Z,21.93
2019-04-07T20:44:57.048Z,22.63
2019-04-07T20:47:33.231Z,21.57
2019-04-07T20:50:19.743Z,22.37
2019-04-07T20:53:09.309Z,22.70
2019-04-07T20:55:30.906Z,23.37
2019-04-07T20:58:13.091Z,24.10
2019-04-07T21:00:36.920Z,23.70
2019-04-07T21:03:19.495Z,22.57
2019-04-07T21:06:00.120Z,23.47
2019-04-07T21:08:31.782Z,24.47
2019-04-07T21:11:10.980Z,22.77
2019-04-07T21:14:00.889Z,25.10
2019-04-07T21:16:41.230Z,23.50
2019-04-07T21:19:11.584Z,25.13
2019-04-07T21:21:54.056Z,23.90
2019-04-07T21:24:27.207Z,25.73
2019-04-07T21:26:59.331Z,27.00
2019-04-07T21:29:31.892Z,26.15
2019-04-07T21:32:09.605Z,24.70
2019-04-07T21:34:52.050Z,25.40
2019-04-07T21:37:28.447Z,24.30
2019-04-07T21:40:05.373Z,23.83
2019-04-07T21:42:32.733Z,26.77
2019-04-07T21:45:11.763Z,26.10
2019-04-07T21:48:00.541Z,23.77
2019-04-07T21:50:31.568Z,27.17
2019-04-07T21:53:04.550Z,24.77
2019-04-07T21:55:34.564Z,24.13
2019-04-07T21:58:10.639Z,24.90
2019-04-07T22:00:53.102Z,27.03
2019-04-07T22:03:26.859Z,26.83
2019-04-07T22:06:00.617Z,25.83
2019-04-07T22:08:30.694Z,24.73
2019-04-07T22:10:59.446Z,23.97
2019-04-07T22:13:28.660Z,23.27
2019-04-07T22:16:00.589Z,25.33
2019-04-07T22:18:27.338Z,24.83
2019-04-07T22:20:57.013Z,24.07
2019-04-07T22:23:25.497Z,23.57
2019-04-07T22:25:54.157Z,26.00
2019-04-07T22:28:22.798Z,25.93
2019-04-07T22:30:53.214Z,24.63
2019-04-07T22:33:25.290Z,25.02
2019-04-07T22:35:51.789Z,25.63
2019-04-07T22:38:23.063Z,26.67
2019-04-07T22:40:50.368Z,23.53
2019-04-07T22:43:19.903Z,24.93
2019-04-07T22:45:58.849Z,26.03
2019-04-07T22:48:22.788Z,24.47
2019-04-07T22:50:49.647Z,27.33
2019-04-07T22:53:22.532Z,22.50
2019-04-07T22:55:48.601Z,22.63
2019-04-07T22:58:18.011Z,21.63
2019-04-07T23:00:46.662Z,22.57
2019-04-07T23:03:15.567Z,22.00
2019-04-07T23:05:44.030Z,23.37
2019-04-07T23:08:12.536Z,22.43
2019-04-07T23:10:40.874Z,21.63
2019-04-07T23:13:09.298Z,24.73
2019-04-07T23:15:43.923Z,23.67
2019-04-07T23:18:07.864Z,24.57
2019-04-07T23:20:36.402Z,23.87
2019-04-07T23:23:04.819Z,24.07
2019-04-07T23:25:33.224Z,24.97
2019-04-07T23:28:02.661Z,22.23
2019-04-07T23:30:31.418Z,23.93
2019-04-07T23:33:00.047Z,23.60
2019-04-07T23:35:28.768Z,22.22
2019-04-07T23:37:57.453Z,22.03
2019-04-07T23:40:25.977Z,25.07
2019-04-07T23:42:55.111Z,21.67
2019-04-07T23:45:23.632Z,22.70
2019-04-07T23:47:52.557Z,21.27
2019-04-07T23:50:21.140Z,23.27
2019-04-07T23:52:49.795Z,23.37
2019-04-07T23:55:18.176Z,24.37
2019-04-07T23:57:46.568Z,22.17
